Terminal Aerodrome Forecast
Issued by NWS Jackson, KY

Home | Current Version | Previous Version | Text Only | Print | Product List | Glossary On
Versions: 1 2 3 4 5 6 7 8 9 10 11 12 13 14 15 16 17
000
FTUS43 KJKL 290500
TAFJKL
TAF
KJKL 290534Z 2906/3006 VRB03KT 1SM BR VCSH OVC003
     FM291500 VRB03KT 5SM BR OVC009
     FM291800 VRB03KT P6SM OVC015=

USA.gov is the U.S. government's official web portal to all federal, state and local government web resources and services.